Terminal Aerodrome Forecast
Issued by NWS

Home | Current Version | Previous Version | Text Only | Print | Product List | Glossary On
Versions: 1 2 3 4 5 6 7 8 9 10 11 12 13 14 15 16 17 18 19 20 21 22 23 24 25 26 27 28 29 30 31 32 33 34 35 36
534
FTUS43 KFGF 251724 AAA
TAFTVF
TAF AMD
KTVF 251724Z 2517/2618 15016KT P6SM SCT015
      TEMPO 2518/2520 BKN015
     FM260100 15009KT P6SM SCT060
     FM260700 16007KT P6SM BKN025
     FM261600 17005KT P6SM BKN015=

USA.gov is the U.S. government's official web portal to all federal, state and local government web resources and services.